Time;durP1;ratioP1;P1;durP2;ratioP2;P2;SDS_P1;SDS_P2;PMS_P1;PMS_P2;Temp;Humidity;BMP_temperature;BMP_pressure;BME280_temperature;BME280_humidity;BME280_pressure;Samples;Min_cycle;Max_cycle;Signal;HPM_P1;HPM_P2
2022/06/15 00:00:18;;;;;;;3.37;3.07;;;;;;;7.52;100.00;101402.03;4846537;29;20063;-80
2022/06/15 00:02:45;;;;;;;3.97;2.83;;;;;;;7.55;100.00;101400.28;4848618;29;20044;-79
2022/06/15 00:05:14;;;;;;;5.53;3.53;;;;;;;7.52;100.00;101400.28;4845351;29;20156;-80
2022/06/15 00:07:42;;;;;;;5.27;3.27;;;;;;;7.57;100.00;101402.94;4871619;29;20763;-80
2022/06/15 00:10:09;;;;;;;4.13;3.20;;;;;;;7.49;100.00;101397.66;4865871;29;20040;-80
2022/06/15 00:12:37;;;;;;;3.63;2.77;;;;;;;7.53;100.00;101395.91;4870964;29;20067;-80
2022/06/15 00:15:06;;;;;;;5.00;3.50;;;;;;;7.41;100.00;101399.38;4874603;29;20087;-80
2022/06/15 00:17:34;;;;;;;3.53;3.23;;;;;;;7.34;100.00;101400.22;4862762;29;20240;-79
2022/06/15 00:20:01;;;;;;;3.60;2.70;;;;;;;7.30;100.00;101394.03;4879075;29;20521;-79
2022/06/15 00:22:30;;;;;;;4.20;3.27;;;;;;;7.20;100.00;101394.00;4845051;29;20059;-80
2022/06/15 00:24:57;;;;;;;4.63;3.13;;;;;;;7.22;100.00;101387.88;4851477;29;20045;-79
2022/06/15 00:27:23;;;;;;;3.83;2.83;;;;;;;7.18;100.00;101382.63;4868755;29;20040;-79
2022/06/15 00:29:50;;;;;;;3.20;2.80;;;;;;;7.13;100.00;101385.19;4867581;29;20104;-79
2022/06/15 00:32:17;;;;;;;3.97;3.30;;;;;;;7.11;100.00;101380.81;4876760;29;20044;-79
2022/06/15 00:34:43;;;;;;;5.07;2.93;;;;;;;7.10;100.00;101381.69;4846008;29;20455;-79
2022/06/15 00:37:10;;;;;;;4.10;2.83;;;;;;;7.00;100.00;101383.41;4873048;29;20540;-79
2022/06/15 00:39:38;;;;;;;6.20;3.30;;;;;;;6.90;100.00;101385.09;4859243;29;20411;-79
2022/06/15 00:42:05;;;;;;;5.20;2.70;;;;;;;6.84;100.00;101381.53;4880364;29;20052;-79
2022/06/15 00:44:39;;;;;;;3.97;2.93;;;;;;;6.82;100.00;101381.53;4869836;29;20049;-79
2022/06/15 00:47:18;;;;;;;3.80;3.20;;;;;;;6.84;100.00;101394.69;4881559;29;20099;-80
2022/06/15 00:50:05;;;;;;;4.60;3.00;;;;;;;6.80;100.00;101385.88;4883101;29;20044;-79
2022/06/15 00:52:43;;;;;;;4.43;3.00;;;;;;;6.77;100.00;101389.38;4855377;29;20040;-79
2022/06/15 00:55:17;;;;;;;3.50;3.10;;;;;;;6.76;100.00;101390.25;4872640;29;20032;-80
2022/06/15 00:57:44;;;;;;;4.47;2.90;;;;;;;6.75;100.00;101392.88;4851823;29;20045;-79
2022/06/15 01:00:12;;;;;;;4.87;2.83;;;;;;;6.69;100.00;101406.81;4871600;29;20040;-80
2022/06/15 01:02:40;;;;;;;3.83;2.60;;;;;;;6.63;100.00;101396.28;4844897;29;20045;-80
2022/06/15 01:05:11;;;;;;;4.70;3.03;;;;;;;6.62;100.00;101410.28;4862604;29;20040;-80
2022/06/15 01:07:51;;;;;;;5.73;3.37;;;;;;;6.59;100.00;101404.13;4878072;29;20578;-80
2022/06/15 01:10:25;;;;;;;4.97;3.00;;;;;;;6.55;100.00;101402.31;4887335;29;20047;-80
2022/06/15 01:12:55;;;;;;;3.78;2.70;;;;;;;6.53;100.00;101402.31;4891173;29;20403;-80
2022/06/15 01:15:31;;;;;;;4.43;3.00;;;;;;;6.57;100.00;101404.13;4872691;29;20109;-80
2022/06/15 01:18:36;;;;;;;5.23;3.50;;;;;;;6.53;100.00;101402.31;4898925;29;20508;-81
2022/06/15 01:21:03;;;;;;;5.68;3.13;;;;;;;6.46;100.00;101404.00;4888698;29;20044;-80
2022/06/15 01:23:45;;;;;;;3.67;3.20;;;;;;;6.43;100.00;101405.75;4883139;29;20055;-80
2022/06/15 01:26:50;;;;;;;3.57;3.00;;;;;;;6.38;100.00;101404.81;4899752;29;20041;-80
2022/06/15 01:29:43;;;;;;;3.83;2.97;;;;;;;6.32;100.00;101403.03;4880116;29;20105;-80
2022/06/15 01:32:17;;;;;;;3.77;2.80;;;;;;;6.31;100.00;101400.41;4876664;29;20104;-80
2022/06/15 01:34:52;;;;;;;4.50;2.90;;;;;;;6.30;100.00;101396.00;4859615;29;20051;-80
2022/06/15 01:37:21;;;;;;;3.83;2.90;;;;;;;6.27;100.00;101403.84;4855953;29;20045;-80
2022/06/15 01:40:00;;;;;;;4.67;3.03;;;;;;;6.22;100.00;101409.03;4862768;29;20124;-80
2022/06/15 01:42:32;;;;;;;4.80;3.50;;;;;;;6.17;100.00;101405.53;4866869;29;20045;-80
2022/06/15 01:45:05;;;;;;;4.93;3.60;;;;;;;6.20;100.00;101408.16;4851229;29;20477;-80
2022/06/15 01:47:34;;;;;;;3.90;3.03;;;;;;;6.25;100.00;101416.09;4860816;29;20067;-80
2022/06/15 01:50:07;;;;;;;4.00;3.47;;;;;;;6.14;100.00;101414.25;4859273;29;20048;-79
2022/06/15 01:52:38;;;;;;;4.83;3.43;;;;;;;6.08;100.00;101408.94;4889599;29;20052;-80
2022/06/15 01:55:09;;;;;;;4.20;2.90;;;;;;;6.03;100.00;101408.00;4873066;29;20096;-81
2022/06/15 01:57:37;;;;;;;5.37;3.10;;;;;;;5.99;100.00;101405.34;4882657;29;20040;-81
2022/06/15 02:00:08;;;;;;;3.63;2.90;;;;;;;5.97;100.00;101409.66;4856950;29;20105;-81
2022/06/15 02:02:44;;;;;;;3.67;3.00;;;;;;;5.94;100.00;101410.53;4898454;29;20116;-81
2022/06/15 02:05:29;;;;;;;4.80;3.10;;;;;;;5.92;100.00;101409.63;4870396;29;20120;-81
2022/06/15 02:08:15;;;;;;;4.83;2.87;;;;;;;5.88;100.00;101405.19;4874765;29;20059;-81
2022/06/15 02:11:04;;;;;;;4.10;3.37;;;;;;;5.87;100.00;101406.03;4869958;29;20437;-81
2022/06/15 02:13:46;;;;;;;3.43;2.50;;;;;;;5.85;100.00;101400.78;4859029;29;20053;-81
2022/06/15 02:16:17;;;;;;;5.10;3.07;;;;;;;5.84;100.00;101388.53;4894021;29;20036;-80
2022/06/15 02:18:48;;;;;;;3.67;3.10;;;;;;;5.84;100.00;101401.66;4859267;29;20040;-79
2022/06/15 02:21:17;;;;;;;4.53;3.07;;;;;;;5.87;100.00;101406.91;4873303;29;20395;-80
2022/06/15 02:23:46;;;;;;;3.70;3.03;;;;;;;5.87;100.00;101404.28;4869722;29;20044;-81
2022/06/15 02:26:14;;;;;;;4.73;2.90;;;;;;;5.87;100.00;101399.06;4866259;29;20498;-80
2022/06/15 02:28:45;;;;;;;3.70;3.00;;;;;;;5.90;100.00;101398.22;4847778;29;20045;-80
2022/06/15 02:31:12;;;;;;;4.80;2.87;;;;;;;5.87;100.00;101404.28;4878449;29;20044;-80
2022/06/15 02:33:46;;;;;;;4.07;3.03;;;;;;;5.84;100.00;101403.41;4869980;29;20056;-81
2022/06/15 02:36:13;;;;;;;3.90;2.67;;;;;;;5.82;100.00;101405.13;4866671;29;20045;-81
2022/06/15 02:38:42;;;;;;;5.10;3.80;;;;;;;5.82;100.00;101399.88;4878520;29;20041;-80
2022/06/15 02:41:09;;;;;;;4.53;2.97;;;;;;;5.81;100.00;101395.50;4877160;29;20077;-81
2022/06/15 02:43:37;;;;;;;4.63;3.03;;;;;;;5.80;100.00;101401.59;4847672;29;20105;-79
2022/06/15 02:46:04;;;;;;;3.83;2.77;;;;;;;5.80;100.00;101396.34;4877352;29;20029;-80
2022/06/15 02:48:33;;;;;;;4.53;2.87;;;;;;;5.80;100.00;101396.34;4868063;29;20802;-80
2022/06/15 02:51:14;;;;;;;5.30;3.03;;;;;;;5.81;100.00;101396.38;4873335;29;20078;-80
2022/06/15 02:53:43;;;;;;;4.73;3.00;;;;;;;5.85;100.00;101390.28;4889106;29;20136;-79
2022/06/15 02:56:12;;;;;;;4.23;3.00;;;;;;;5.86;100.00;101392.06;4860970;29;20388;-80
2022/06/15 02:58:47;;;;;;;5.13;3.67;;;;;;;5.87;100.00;101392.94;4842875;29;20052;-79
2022/06/15 03:01:15;;;;;;;3.13;2.67;;;;;;;5.90;100.00;101398.22;4858999;29;20044;-80
2022/06/15 03:03:42;;;;;;;4.83;3.17;;;;;;;5.91;100.00;101405.25;4863873;29;20063;-80
2022/06/15 03:06:14;;;;;;;5.57;3.20;;;;;;;5.91;100.00;101406.13;4872313;29;20039;-79
2022/06/15 03:08:41;;;;;;;4.73;2.90;;;;;;;5.88;100.00;101408.69;4878196;29;20046;-80
2022/06/15 03:11:08;;;;;;;4.33;3.13;;;;;;;5.87;100.00;101400.81;4881426;29;20043;-80
2022/06/15 03:13:35;;;;;;;3.70;3.07;;;;;;;5.86;100.00;101402.53;4878435;29;20063;-80
2022/06/15 03:16:02;;;;;;;4.20;3.30;;;;;;;5.90;100.00;101403.47;4863661;29;20037;-80
2022/06/15 03:18:30;;;;;;;4.30;2.87;;;;;;;5.97;100.00;101407.97;4879669;29;20074;-79
2022/06/15 03:20:58;;;;;;;4.90;2.97;;;;;;;6.00;100.00;101407.97;4870122;29;20044;-79
2022/06/15 03:23:25;;;;;;;4.70;3.00;;;;;;;6.00;100.00;101405.34;4888896;29;20048;-79
2022/06/15 03:25:56;;;;;;;3.53;3.07;;;;;;;6.02;100.00;101410.59;4859807;29;20065;-80
2022/06/15 03:28:23;;;;;;;3.57;2.70;;;;;;;6.06;100.00;101415.91;4863829;29;20044;-79
2022/06/15 03:30:50;;;;;;;3.93;2.70;;;;;;;6.04;100.00;101416.75;4870086;29;20056;-80
2022/06/15 03:33:18;;;;;;;4.03;3.37;;;;;;;5.99;100.00;101418.47;4866763;29;20044;-79
2022/06/15 03:35:45;;;;;;;3.83;2.77;;;;;;;6.03;100.00;101426.34;4881559;29;20038;-79
2022/06/15 03:38:12;;;;;;;6.47;3.27;;;;;;;6.07;100.00;101419.41;4863286;29;20048;-79
2022/06/15 03:40:41;;;;;;;9.30;4.00;;;;;;;6.10;100.00;101417.69;4849308;29;20132;-79
2022/06/15 03:43:09;;;;;;;13.87;4.60;;;;;;;6.16;100.00;101420.38;4892090;29;20088;-80
2022/06/15 03:45:36;;;;;;;15.37;4.00;;;;;;;6.27;100.00;101427.47;4858835;29;20456;-81
2022/06/15 03:48:03;;;;;;;9.53;3.80;;;;;;;6.36;100.00;101411.81;4856659;29;20123;-81
2022/06/15 03:50:32;;;;;;;12.00;4.90;;;;;;;6.41;100.00;101408.38;4859467;29;20047;-80
2022/06/15 03:53:00;;;;;;;8.83;3.70;;;;;;;6.54;100.00;101418.94;4871017;29;20074;-80
2022/06/15 03:55:31;;;;;;;4.57;3.47;;;;;;;6.58;100.00;101413.75;4875009;29;21307;-80
2022/06/15 03:57:58;;;;;;;3.87;3.30;;;;;;;6.58;100.00;101412.88;4845264;29;20053;-80
2022/06/15 04:00:26;;;;;;;9.47;4.17;;;;;;;6.62;100.00;101401.50;4871389;29;20043;-79
2022/06/15 04:02:53;;;;;;;8.67;4.10;;;;;;;6.73;100.00;101406.00;4869782;29;20059;-79
2022/06/15 04:05:23;;;;;;;5.37;3.67;;;;;;;6.76;100.00;101403.38;4858621;29;20060;-80
2022/06/15 04:10:35;;;;;;;4.97;3.23;;;;;;;6.96;100.00;101398.25;4847359;29;20049;-81
2022/06/15 04:13:03;;;;;;;4.30;2.63;;;;;;;7.09;100.00;101412.34;4846243;29;20109;-80
2022/06/15 04:15:29;;;;;;;3.93;2.97;;;;;;;7.23;100.00;101412.41;4861713;29;20407;-81
2022/06/15 07:07:23;;;;;;;3.28;1.95;;;;;;;20.66;52.95;101391.28;4869675;29;20033;-96
2022/06/15 07:09:50;;;;;;;6.05;2.35;;;;;;;20.84;53.25;101386.78;4840269;29;20492;-80
2022/06/15 07:12:17;;;;;;;3.05;1.92;;;;;;;20.98;50.20;101381.59;4828239;29;20058;-80
2022/06/15 07:14:43;;;;;;;2.17;1.40;;;;;;;21.08;50.25;101386.38;4826728;29;20056;-81
2022/06/15 07:17:10;;;;;;;3.20;1.40;;;;;;;21.08;48.44;101388.22;4824346;29;20412;-81
2022/06/15 07:19:42;;;;;;;11.05;2.97;;;;;;;21.26;48.81;101391.72;4828975;29;20048;-79
2022/06/15 07:22:09;;;;;;;4.55;2.28;;;;;;;21.33;48.27;101383.28;4840980;29;20046;-79
2022/06/15 07:24:35;;;;;;;1.98;1.60;;;;;;;21.60;48.17;101383.59;4830496;29;20051;-81
2022/06/15 07:27:02;;;;;;;3.10;1.40;;;;;;;21.78;46.44;101387.13;4818210;29;20041;-80
2022/06/15 07:29:29;;;;;;;3.00;1.50;;;;;;;21.85;48.02;101384.94;4840757;29;20504;-80
2022/06/15 07:31:56;;;;;;;3.10;1.52;;;;;;;22.12;46.04;101380.75;4827334;29;20048;-80
2022/06/15 07:34:23;;;;;;;3.22;1.40;;;;;;;22.70;44.28;101376.44;4840878;29;20515;-80
2022/06/15 07:36:50;;;;;;;2.88;1.40;;;;;;;22.61;42.73;101382.38;4842643;29;20050;-81
2022/06/15 07:39:23;;;;;;;3.38;1.60;;;;;;;22.98;44.69;101378.41;4826177;29;20427;-80
2022/06/15 07:41:49;;;;;;;2.55;1.90;;;;;;;23.15;42.63;101380.91;4828478;29;20057;-80
2022/06/15 07:44:18;;;;;;;3.40;1.77;;;;;;;22.95;43.41;101383.94;4840823;29;20057;-79
2022/06/15 07:46:45;;;;;;;4.22;1.90;;;;;;;23.15;43.28;101385.44;4813615;29;20176;-80
2022/06/15 07:52:00;;;;;;;3.40;1.80;;;;;;;23.39;43.23;101388.47;4842414;29;20152;-80
2022/06/15 07:54:27;;;;;;;3.13;2.10;;;;;;;23.74;41.60;101394.34;4826731;29;20052;-80
2022/06/15 07:56:54;;;;;;;3.03;2.10;;;;;;;23.48;41.34;101380.66;4843355;29;20045;-81
2022/06/15 07:59:22;;;;;;;2.90;1.92;;;;;;;22.76;42.54;101382.34;4825843;29;20136;-80
2022/06/15 08:01:49;;;;;;;3.30;1.70;;;;;;;22.30;43.17;101377.94;4826650;29;20042;-80
2022/06/15 08:04:16;;;;;;;5.97;2.05;;;;;;;22.35;45.53;101378.53;4825779;29;20041;-79
2022/06/15 08:06:44;;;;;;;2.95;1.60;;;;;;;22.18;43.88;101380.38;4812556;29;20422;-80
2022/06/15 08:09:13;;;;;;;5.65;2.03;;;;;;;22.16;44.94;101373.34;4810683;29;20392;-80
2022/06/15 08:12:11;;;;;;;2.85;2.10;;;;;;;21.96;44.37;101381.66;4811840;29;20101;-79
2022/06/15 08:14:28;;;;;;;3.95;1.85;;;;;;;;;;4828229;29;20076;-79
2022/06/15 08:16:55;;;;;;;7.57;2.33;;;;;;;21.86;45.70;101378.59;4841456;29;20374;-79
2022/06/15 08:19:21;;;;;;;3.47;1.70;;;;;;;21.47;45.66;101379.00;4825721;29;20053;-79
2022/06/15 08:21:48;;;;;;;4.13;1.92;;;;;;;22.10;46.73;101374.56;4841811;29;20045;-80
2022/06/15 08:24:14;;;;;;;3.88;1.90;;;;;;;22.93;44.14;101369.72;4839702;29;20399;-79
2022/06/15 08:26:43;;;;;;;3.80;1.90;;;;;;;23.12;41.41;101366.75;4827507;29;20433;-80
2022/06/15 08:29:12;;;;;;;4.80;1.80;;;;;;;23.22;42.03;101362.53;4810773;29;20053;-79
2022/06/15 08:31:39;;;;;;;4.72;1.75;;;;;;;23.76;41.58;101365.44;4827384;29;20049;-80
2022/06/15 08:34:06;;;;;;;3.38;2.10;;;;;;;24.06;39.11;101354.47;4842143;29;20056;-81
2022/06/15 08:36:33;;;;;;;2.53;1.73;;;;;;;24.54;39.01;101358.44;4812565;29;20050;-80
2022/06/15 08:39:00;;;;;;;3.38;2.25;;;;;;;24.14;37.55;101353.00;4856478;29;20057;-79
2022/06/15 08:41:36;;;;;;;8.48;2.85;;;;;;;24.19;39.39;101354.53;4860102;29;20053;-80
2022/06/15 08:44:34;;;;;;;10.68;2.47;;;;;;;24.51;37.94;101342.47;4857587;29;20056;-80
2022/06/15 08:47:28;;;;;;;12.45;3.60;;;;;;;24.97;36.73;101355.47;4842218;29;20057;-80
2022/06/15 08:50:22;;;;;;;10.40;2.85;;;;;;;24.95;36.85;101344.78;4856250;29;20098;-79
2022/06/15 08:53:17;;;;;;;9.02;2.53;;;;;;;25.29;35.62;101347.84;4858355;29;20056;-81
2022/06/15 08:55:48;;;;;;;2.75;1.50;;;;;;;25.16;35.00;101347.88;4841879;29;20102;-79
2022/06/15 08:58:27;;;;;;;5.57;1.88;;;;;;;25.25;35.75;101346.34;4825666;29;20048;-83
2022/06/15 09:00:57;;;;;;;4.00;2.05;;;;;;;25.43;34.85;101347.72;4814210;29;20054;-81
2022/06/15 09:03:39;;;;;;;3.50;1.60;;;;;;;25.83;35.23;101347.59;4838911;29;20066;-82
2022/06/15 09:06:38;;;;;;;3.90;1.85;;;;;;;25.96;34.69;101348.38;4826105;29;20049;-82
2022/06/15 09:09:19;;;;;;;5.07;1.67;;;;;;;25.68;32.93;101344.13;4841503;29;20900;-82
2022/06/15 09:15:20;;;;;;;3.67;2.10;;;;;;;26.04;31.95;101342.41;4844059;29;20045;-81
2022/06/15 09:17:51;;;;;;;6.55;2.35;;;;;;;25.37;33.21;101339.19;4796946;29;20057;-80
2022/06/15 09:20:27;;;;;;;3.60;1.92;;;;;;;25.03;33.63;101344.28;4826439;29;20037;-82
2022/06/15 09:23:06;;;;;;;3.25;2.03;;;;;;;24.64;34.24;101348.78;4814440;29;20432;-79
2022/06/15 09:25:46;;;;;;;4.78;2.00;;;;;;;25.03;34.91;101348.81;4828616;29;20061;-81
2022/06/15 09:28:42;;;;;;;4.78;2.50;;;;;;;24.87;34.62;101346.28;4845715;29;20049;-80
2022/06/15 09:31:32;;;;;;;6.25;2.00;;;;;;;25.36;33.23;101345.56;4846035;29;20068;-80
2022/06/15 09:34:01;;;;;;;2.38;1.88;;;;;;;25.63;32.27;101342.72;4829585;29;20045;-81
2022/06/15 09:36:46;;;;;;;8.73;2.72;;;;;;;25.87;32.71;101335.53;4817234;29;20041;-81
2022/06/15 09:39:13;;;;;;;3.60;1.95;;;;;;;26.26;32.68;101341.66;4845716;29;20136;-80
2022/06/15 09:41:46;;;;;;;2.95;1.80;;;;;;;26.52;31.77;101337.00;4815883;29;20054;-80
2022/06/15 09:44:26;;;;;;;31.90;6.32;;;;;;;25.41;32.76;101336.16;4842272;29;20057;-84
2022/06/15 09:47:26;;;;;;;3.20;2.13;;;;;;;24.60;35.44;101335.56;4826892;29;20037;-80
2022/06/15 09:49:58;;;;;;;3.40;2.42;;;;;;;24.19;35.26;101338.31;4845674;29;20053;-82
2022/06/15 09:52:55;;;;;;;3.50;2.08;;;;;;;24.41;35.80;101330.56;4848593;29;20065;-82
2022/06/15 09:55:39;;;;;;;4.38;2.45;;;;;;;25.27;35.45;101336.28;4832127;29;20072;-82
2022/06/15 09:58:37;;;;;;;3.78;2.20;;;;;;;26.15;32.93;101330.75;4853539;29;20041;-81
2022/06/15 10:01:07;;;;;;;3.95;2.40;;;;;;;26.50;31.73;101328.13;4834761;29;20521;-81
2022/06/15 10:03:36;;;;;;;5.25;2.33;;;;;;;26.90;31.44;101328.59;4825094;29;20049;-82
2022/06/15 10:06:18;;;;;;;2.97;2.30;;;;;;;27.21;30.52;101329.78;4843001;29;20063;-82
2022/06/15 10:08:45;;;;;;;4.07;2.50;;;;;;;27.43;30.43;101323.50;4841385;29;20052;-81
2022/06/15 10:11:18;;;;;;;3.83;2.50;;;;;;;27.63;29.73;101332.72;4829765;29;20053;-82
2022/06/15 10:13:49;;;;;;;3.50;1.88;;;;;;;27.61;30.68;101323.88;4831556;29;20050;-83
2022/06/15 10:16:29;;;;;;;2.07;1.87;;;;;;;27.00;30.94;101323.34;4831045;29;20050;-81
2022/06/15 10:18:58;;;;;;;3.50;2.00;;;;;;;26.42;31.39;101317.88;4830806;29;20824;-81
2022/06/15 10:21:29;;;;;;;3.95;1.83;;;;;;;25.87;33.06;101330.13;4809629;29;20050;-80
2022/06/15 10:23:59;;;;;;;3.85;2.10;;;;;;;24.99;33.41;101318.41;4831997;29;20427;-82
2022/06/15 10:26:30;;;;;;;2.97;1.80;;;;;;;24.70;35.19;101315.03;4872488;29;20053;-81
2022/06/15 10:29:00;;;;;;;3.78;2.10;;;;;;;24.30;34.98;101315.06;4858899;29;21050;-81
2022/06/15 10:31:32;;;;;;;3.58;1.70;;;;;;;24.15;35.21;101308.84;4833975;29;20400;-80
2022/06/15 10:34:19;;;;;;;2.13;1.90;;;;;;;24.39;34.92;101306.34;4826404;29;20102;-80
2022/06/15 10:36:52;;;;;;;3.90;2.35;;;;;;;24.82;34.19;101302.53;4848588;29;20044;-78
2022/06/15 10:39:28;;;;;;;3.90;2.45;;;;;;;25.24;33.38;101299.50;4847990;29;20037;-79
2022/06/15 10:42:05;;;;;;;4.68;2.13;;;;;;;25.51;33.42;101296.63;4837425;29;20073;-80
2022/06/15 10:44:40;;;;;;;4.90;1.98;;;;;;;26.07;33.27;101302.44;4842665;29;20128;-79
2022/06/15 10:47:18;;;;;;;4.93;2.10;;;;;;;26.44;31.50;101301.50;4832307;29;20042;-79
2022/06/15 10:49:51;;;;;;;4.82;2.47;;;;;;;26.37;30.22;101296.50;4829913;29;20049;-81
2022/06/15 10:52:44;;;;;;;3.90;2.15;;;;;;;25.53;31.64;101308.22;4835535;29;20045;-81
2022/06/15 11:04:10;;;;;;;3.13;2.38;;;;;;;25.01;33.88;101292.13;4824186;29;20560;-80
2022/06/15 11:06:44;;;;;;;3.53;2.20;;;;;;;25.50;32.38;101277.81;4846159;29;20046;-79
2022/06/15 11:09:31;;;;;;;4.40;2.60;;;;;;;25.71;32.49;101286.22;4813181;29;20045;-80
2022/06/15 11:12:02;;;;;;;3.63;2.42;;;;;;;25.91;32.81;101298.28;4829877;29;20052;-81
2022/06/15 11:14:35;;;;;;;5.72;2.38;;;;;;;26.35;32.39;101290.34;4817518;29;20052;-80
2022/06/15 11:20:18;;;;;;;19.75;5.35;;;;;;;26.03;31.93;101289.22;4832995;29;20045;-81
2022/06/15 11:22:48;;;;;;;3.72;2.13;;;;;;;25.85;32.62;101282.50;4823493;29;20042;-81
2022/06/15 11:25:18;;;;;;;5.35;2.45;;;;;;;25.61;32.02;101286.00;4824717;29;20053;-82
2022/06/15 11:27:49;;;;;;;3.35;2.63;;;;;;;24.87;32.92;101289.53;4813007;29;20045;-82
2022/06/15 11:30:43;;;;;;;4.43;2.30;;;;;;;24.22;34.80;101282.28;4811535;29;20049;-81
2022/06/15 11:33:17;;;;;;;5.28;2.00;;;;;;;23.97;34.79;101276.81;4811867;29;20095;-81
2022/06/15 11:35:56;;;;;;;4.22;2.10;;;;;;;24.38;34.87;101280.31;4843106;29;20063;-81
2022/06/15 11:38:38;;;;;;;3.65;2.60;;;;;;;24.78;33.91;101273.97;4814909;29;20037;-80
2022/06/15 11:41:28;;;;;;;3.58;2.30;;;;;;;24.74;34.19;101265.22;4845072;29;20479;-81
2022/06/15 11:43:58;;;;;;;4.90;2.10;;;;;;;24.92;34.42;101261.22;4822689;29;20046;-82
2022/06/15 11:47:13;;;;;;;4.05;2.35;;;;;;;25.37;33.61;101264.31;4837893;29;20418;-81
2022/06/15 11:49:59;;;;;;;5.40;2.97;;;;;;;26.01;32.42;101261.41;4764096;30;20534;-81
2022/06/15 11:52:41;;;;;;;3.40;2.80;;;;;;;25.80;32.43;101266.59;4765924;30;20054;-82
2022/06/15 11:55:25;;;;;;;4.75;2.40;;;;;;;26.19;31.85;101260.00;4821604;29;20058;-82
2022/06/15 11:58:24;;;;;;;5.53;2.03;;;;;;;26.59;30.92;101263.25;4833577;29;20045;-82
2022/06/15 12:01:10;;;;;;;7.13;2.70;;;;;;;26.79;30.92;101253.53;4827827;29;20054;-81
2022/06/15 12:03:57;;;;;;;6.18;2.83;;;;;;;26.09;32.28;101253.56;4847210;29;20050;-80
2022/06/15 12:06:36;;;;;;;4.00;2.88;;;;;;;26.37;32.40;101253.16;4851992;29;20041;-82
2022/06/15 12:09:11;;;;;;;18.10;3.90;;;;;;;26.63;30.73;101242.16;4859604;29;20051;-82
2022/06/15 12:14:44;;;;;;;3.45;2.60;;;;;;;25.99;31.64;101242.59;4820235;29;20141;-81
2022/06/15 12:17:31;;;;;;;3.33;2.30;;;;;;;26.25;32.20;101246.00;4793597;29;20054;-81
2022/06/15 12:20:20;;;;;;;2.85;2.25;;;;;;;26.02;32.36;101242.34;4839542;29;20041;-81
2022/06/15 12:23:11;;;;;;;8.48;2.78;;;;;;;25.88;31.33;101228.13;4810567;29;20050;-81
2022/06/15 12:25:59;;;;;;;3.22;2.35;;;;;;;25.97;31.85;101232.81;4862952;29;20052;-82
2022/06/15 12:28:50;;;;;;;2.42;2.15;;;;;;;25.80;31.71;101234.09;4803847;29;20038;-81
2022/06/15 12:31:48;;;;;;;3.60;2.17;;;;;;;25.69;31.69;101231.31;4858182;29;20057;-81
2022/06/15 12:34:39;;;;;;;3.70;2.15;;;;;;;25.13;33.62;101225.53;4828440;29;20049;-82
2022/06/15 12:37:26;;;;;;;2.65;2.15;;;;;;;24.91;33.31;101220.78;4855307;29;20045;-81
2022/06/15 12:40:23;;;;;;;4.90;2.45;;;;;;;25.33;32.40;101215.97;4821273;29;20076;-81
2022/06/15 12:42:54;;;;;;;2.85;2.28;;;;;;;25.86;32.60;101211.13;4863799;29;20496;-81
2022/06/15 12:45:34;;;;;;;4.10;2.10;;;;;;;26.03;31.69;101211.56;4826904;29;20125;-81
2022/06/15 12:48:05;;;;;;;4.57;2.42;;;;;;;26.21;31.53;101205.72;4825996;29;20051;-82
2022/06/15 12:50:58;;;;;;;3.75;2.35;;;;;;;26.29;30.84;101206.84;4822605;29;20461;-81
2022/06/15 12:54:01;;;;;;;3.97;2.28;;;;;;;26.31;31.67;101196.75;4815563;29;20061;-81
2022/06/15 12:57:01;;;;;;;4.72;2.60;;;;;;;26.30;30.35;101200.44;4763094;29;20061;-81
2022/06/15 12:59:46;;;;;;;4.95;2.40;;;;;;;25.87;30.32;101199.31;4821692;29;20531;-82
2022/06/15 13:02:32;;;;;;;2.60;2.28;;;;;;;26.17;30.89;101196.97;4825141;29;20109;-81
2022/06/15 13:05:21;;;;;;;3.85;2.20;;;;;;;26.08;30.62;101198.56;4825273;29;20060;-81
2022/06/15 13:08:16;;;;;;;6.07;2.63;;;;;;;26.68;30.89;101188.47;4826795;29;20052;-83
2022/06/15 13:10:55;;;;;;;4.10;2.53;;;;;;;26.98;30.26;101193.25;4827301;29;20061;-80
2022/06/15 13:13:37;;;;;;;4.38;2.33;;;;;;;27.17;29.47;101188.13;4842548;29;20419;-80
2022/06/15 13:16:10;;;;;;;2.88;2.20;;;;;;;27.48;28.39;101183.72;4831093;29;20041;-81
2022/06/15 13:18:46;;;;;;;4.00;2.50;;;;;;;26.67;27.51;101189.47;4829819;29;20041;-81
2022/06/15 13:21:19;;;;;;;4.22;2.50;;;;;;;26.87;28.97;101186.00;4846411;29;20061;-80
2022/06/15 13:23:59;;;;;;;;;;;;;;;27.20;28.35;101178.84;4844704;29;20045;-81
2022/06/15 13:26:48;;;;;;;3.65;2.10;;;;;;;26.90;29.51;101179.47;5024472;23;19922;-79
2022/06/15 13:29:19;;;;;;;3.17;2.40;;;;;;;26.60;29.86;101174.66;4871425;29;20032;-79
2022/06/15 13:32:04;;;;;;;2.80;2.45;;;;;;;26.41;31.09;101182.53;4879644;29;20060;-79
2022/06/15 13:34:32;;;;;;;2.85;2.20;;;;;;;26.09;30.42;101178.59;4822687;29;20056;-80
2022/06/15 13:37:23;;;;;;;3.63;2.40;;;;;;;26.16;30.87;101176.28;4868933;29;20073;-80
2022/06/15 13:39:52;;;;;;;2.33;2.10;;;;;;;25.98;30.86;101174.97;4880094;29;20413;-80
2022/06/15 13:42:46;;;;;;;3.08;2.50;;;;;;;26.00;30.61;101162.22;4863365;29;20063;-79
2022/06/15 13:45:22;;;;;;;3.60;2.60;;;;;;;26.10;31.34;101171.34;4879905;29;20371;-81
2022/06/15 13:47:52;;;;;;;3.40;2.20;;;;;;;25.86;30.76;101171.38;4870061;29;20040;-79
2022/06/15 13:50:29;;;;;;;4.13;2.13;;;;;;;26.19;30.85;101164.34;4854962;29;20041;-79
2022/06/15 13:52:58;;;;;;;3.45;2.13;;;;;;;26.55;29.54;101160.63;4819205;29;20073;-79
2022/06/15 13:55:40;;;;;;;3.63;2.20;;;;;;;26.41;29.84;101161.72;4845508;29;20041;-79
2022/06/15 13:58:16;;;;;;;2.47;2.10;;;;;;;26.72;29.15;101162.84;4846210;29;20057;-78
2022/06/15 14:01:07;;;;;;;3.47;2.22;;;;;;;26.58;29.90;101161.25;4873800;29;20049;-80
2022/06/15 14:03:49;;;;;;;5.00;2.38;;;;;;;26.73;29.99;101159.13;4846468;29;20056;-80
2022/06/15 14:06:42;;;;;;;2.90;2.22;;;;;;;26.61;29.95;101152.00;4857424;29;20045;-80
2022/06/15 14:09:29;;;;;;;83.93;15.98;;;;;;;26.61;29.34;101152.84;4859453;29;20045;-79
2022/06/15 14:12:14;;;;;;;80.50;12.20;;;;;;;26.39;29.62;101163.66;4865050;29;20056;-80
2022/06/15 14:14:48;;;;;;;4.22;2.67;;;;;;;26.38;29.59;101154.69;4857812;29;20041;-80
2022/06/15 14:17:30;;;;;;;5.13;2.65;;;;;;;26.05;29.67;101158.16;4880730;29;20037;-80
2022/06/15 14:20:00;;;;;;;3.20;2.40;;;;;;;26.23;30.04;101152.28;4840065;29;20136;-78
2022/06/15 14:22:27;;;;;;;3.85;2.30;;;;;;;26.12;30.55;101153.13;4844035;29;20052;-80
2022/06/15 14:25:09;;;;;;;3.10;2.30;;;;;;;25.69;29.80;101150.13;4838822;29;20133;-79
2022/06/15 14:27:36;;;;;;;4.25;2.60;;;;;;;25.66;30.50;101153.06;4831746;29;20049;-79
2022/06/15 14:30:19;;;;;;;5.43;2.60;;;;;;;25.63;30.68;101150.59;4859449;29;20046;-79
2022/06/15 14:32:56;;;;;;;94.13;14.70;;;;;;;25.83;30.61;101149.13;4859885;29;20045;-79
2022/06/15 14:35:23;;;;;;;4.13;2.53;;;;;;;25.72;30.54;101150.78;4857818;29;20037;-80
2022/06/15 14:37:56;;;;;;;37.92;6.78;;;;;;;25.88;30.00;101146.91;4845388;29;20041;-79
2022/06/15 14:40:43;;;;;;;3.58;2.22;;;;;;;25.97;30.36;101141.63;4853837;29;20539;-80
2022/06/15 14:43:11;;;;;;;4.13;2.65;;;;;;;25.70;31.15;101143.72;4843056;29;20128;-79
2022/06/15 14:45:49;;;;;;;4.13;2.60;;;;;;;25.58;31.04;101145.53;4859287;29;20614;-79
2022/06/15 14:48:29;;;;;;;3.88;2.30;;;;;;;25.84;30.58;101145.44;4835178;29;20040;-80
2022/06/15 14:51:07;;;;;;;2.95;2.70;;;;;;;25.24;30.48;101137.25;4861773;29;20061;-80
2022/06/15 14:53:54;;;;;;;2.95;2.60;;;;;;;25.55;31.01;101132.22;4872346;29;21767;-79
2022/06/15 14:56:23;;;;;;;2.70;2.08;;;;;;;25.83;30.61;101122.91;4859954;29;20041;-80
2022/06/15 14:59:07;;;;;;;3.08;2.05;;;;;;;25.63;30.30;101115.41;4863825;29;20110;-81
2022/06/15 15:01:35;;;;;;;4.07;2.60;;;;;;;25.26;31.90;101116.34;4862674;29;20034;-80
2022/06/15 15:04:18;;;;;;;4.00;2.22;;;;;;;25.29;31.38;101117.09;4864173;29;20117;-80
2022/06/15 15:06:50;;;;;;;4.57;2.67;;;;;;;25.54;31.11;101120.53;4862604;29;20049;-79
2022/06/15 15:09:19;;;;;;;4.28;2.55;;;;;;;25.91;31.92;101114.19;4854704;29;20033;-79
2022/06/15 15:11:47;;;;;;;3.05;2.45;;;;;;;26.32;30.70;101110.94;4853231;29;20393;-80
2022/06/15 15:14:13;;;;;;;2.40;2.20;;;;;;;26.69;29.79;101108.88;4846697;29;20042;-79
2022/06/15 15:16:43;;;;;;;2.33;2.00;;;;;;;26.85;29.60;101103.06;4867958;29;20056;-81